createdAt,value
2022-11-20T00:01:14.386Z,15.13
2022-11-20T00:03:41.818Z,14.27
2022-11-20T00:06:10.243Z,13.63
2022-11-20T00:08:37.681Z,15.35
2022-11-20T00:11:06.215Z,14.10
2022-11-20T00:13:34.300Z,14.52
2022-11-20T00:16:02.455Z,13.02
2022-11-20T00:18:30.463Z,13.38
2022-11-20T00:21:04.862Z,14.63
2022-11-20T00:23:32.294Z,14.38
2022-11-20T00:26:03.204Z,14.70
2022-11-20T00:28:30.965Z,14.43
2022-11-20T00:31:08.368Z,14.07
2022-11-20T00:33:36.095Z,13.77
2022-11-20T00:36:07.606Z,15.20
2022-11-20T00:38:35.279Z,14.38
2022-11-20T00:41:03.738Z,15.00
2022-11-20T00:43:31.086Z,15.48
2022-11-20T00:46:01.860Z,15.95
2022-11-20T00:48:29.578Z,16.92
2022-11-20T00:50:57.362Z,15.30
2022-11-20T00:53:24.866Z,15.10
2022-11-20T00:55:56.085Z,17.38
2022-11-20T00:58:24.877Z,16.42
2022-11-20T01:00:52.512Z,17.52
2022-11-20T01:03:25.581Z,16.48
2022-11-20T01:05:54.236Z,16.52
2022-11-20T01:08:21.590Z,16.48
2022-11-20T01:10:48.922Z,15.75
2022-11-20T01:13:35.032Z,15.00
2022-11-20T01:16:09.824Z,15.43
2022-11-20T01:18:38.003Z,16.80
2022-11-20T01:21:06.744Z,15.75
2022-11-20T01:23:37.776Z,15.93
2022-11-20T01:26:05.832Z,16.58
2022-11-20T01:28:33.256Z,16.60
2022-11-20T01:31:00.828Z,15.73
2022-11-20T01:33:28.368Z,14.95
2022-11-20T01:36:04.387Z,16.23
2022-11-20T01:38:31.909Z,17.05
2022-11-20T01:40:59.145Z,19.92
2022-11-20T01:43:26.960Z,21.17
2022-11-20T01:46:13.097Z,22.52
2022-11-20T01:48:44.859Z,17.65
2022-11-20T01:51:24.170Z,18.90
2022-11-20T01:53:52.348Z,18.27
2022-11-20T01:56:19.799Z,18.25
2022-11-20T01:58:50.622Z,16.65
2022-11-20T02:01:18.134Z,18.85
2022-11-20T02:03:45.618Z,17.65
2022-11-20T02:06:39.440Z,20.15
2022-11-20T02:09:06.957Z,20.60
2022-11-20T02:11:34.416Z,20.65
2022-11-20T02:14:01.929Z,21.90
2022-11-20T02:16:48.129Z,21.63
2022-11-20T02:19:44.657Z,20.42
2022-11-20T02:22:18.997Z,22.13
2022-11-20T02:24:46.890Z,19.08
2022-11-20T02:27:15.615Z,20.10
2022-11-20T02:29:46.578Z,20.63
2022-11-20T02:32:23.747Z,22.63
2022-11-20T02:34:51.052Z,20.63
2022-11-20T02:37:18.546Z,22.77
2022-11-20T02:39:47.793Z,20.75
2022-11-20T02:42:15.157Z,19.75
2022-11-20T02:44:42.755Z,21.58
2022-11-20T02:47:10.221Z,19.95
2022-11-20T02:49:37.492Z,20.30
2022-11-20T02:52:04.801Z,20.58
2022-11-20T02:54:32.479Z,20.67
2022-11-20T02:56:59.681Z,20.65
2022-11-20T02:59:27.003Z,22.80
2022-11-20T03:01:54.264Z,21.83
2022-11-20T03:04:21.601Z,22.15
2022-11-20T03:06:48.829Z,22.20
2022-11-20T03:09:16.157Z,19.90
2022-11-20T03:11:43.593Z,21.88
2022-11-20T03:14:10.965Z,20.77
2022-11-20T03:16:38.168Z,19.58
2022-11-20T03:19:05.471Z,19.58
2022-11-20T03:21:34.356Z,18.23
2022-11-20T03:24:01.794Z,19.25
2022-11-20T03:26:29.149Z,19.67
2022-11-20T03:29:00.256Z,18.55
2022-11-20T03:31:29.130Z,19.95
2022-11-20T03:33:57.273Z,18.23
2022-11-20T03:36:24.722Z,19.02
2022-11-20T03:38:52.056Z,18.15
2022-11-20T03:41:23.572Z,17.55
2022-11-20T03:43:55.035Z,17.23
2022-11-20T03:46:22.735Z,16.73
2022-11-20T03:48:52.126Z,19.13
2022-11-20T03:51:23.978Z,16.73
2022-11-20T03:53:52.152Z,15.93
2022-11-20T03:56:20.525Z,17.92
2022-11-20T03:58:47.881Z,17.70
2022-11-20T04:01:17.461Z,16.40
2022-11-20T04:03:45.369Z,19.55
2022-11-20T04:06:13.922Z,19.50
2022-11-20T04:08:42.030Z,20.20
2022-11-20T04:11:11.683Z,17.02
2022-11-20T04:13:39.125Z,18.30
2022-11-20T04:16:06.983Z,19.25
2022-11-20T04:18:34.542Z,21.05
2022-11-20T04:21:01.970Z,18.77
2022-11-20T04:23:29.525Z,19.05
2022-11-20T04:26:02.436Z,20.35
2022-11-20T04:28:29.771Z,21.17
2022-11-20T04:31:03.165Z,19.98
2022-11-20T04:33:34.274Z,16.75
2022-11-20T04:36:05.790Z,18.02
2022-11-20T04:38:33.268Z,18.17
2022-11-20T04:41:01.193Z,18.33
2022-11-20T04:43:28.907Z,16.83
2022-11-20T04:45:57.160Z,20.17
2022-11-20T04:48:25.117Z,17.55
2022-11-20T04:50:52.642Z,17.80
2022-11-20T04:53:20.473Z,16.92
2022-11-20T04:55:48.045Z,18.25
2022-11-20T04:58:15.762Z,19.60
2022-11-20T05:00:43.087Z,17.58
2022-11-20T05:03:10.358Z,18.38
2022-11-20T05:05:37.644Z,18.95
2022-11-20T05:08:05.131Z,19.25
2022-11-20T05:10:32.358Z,19.25
2022-11-20T05:13:02.047Z,18.90
2022-11-20T05:15:29.621Z,18.85
2022-11-20T05:17:57.519Z,17.75
2022-11-20T05:20:24.814Z,19.60
2022-11-20T05:22:52.068Z,19.40
2022-11-20T05:25:19.444Z,18.60
2022-11-20T05:27:46.726Z,21.13
2022-11-20T05:30:16.820Z,18.25
2022-11-20T05:32:44.182Z,18.00
2022-11-20T05:35:13.042Z,20.13
2022-11-20T05:37:40.445Z,18.90
2022-11-20T05:40:08.320Z,20.55
2022-11-20T05:42:36.661Z,18.80
2022-11-20T05:45:05.629Z,18.75
2022-11-20T05:47:34.554Z,19.85
2022-11-20T05:50:02.015Z,18.52
2022-11-20T05:52:32.433Z,18.30
2022-11-20T05:54:59.778Z,19.73
2022-11-20T05:57:30.165Z,19.42
2022-11-20T05:59:57.474Z,18.08
2022-11-20T06:02:24.765Z,20.10
2022-11-20T06:04:52.168Z,20.65
2022-11-20T06:07:19.665Z,23.27
2022-11-20T06:09:47.068Z,20.33
2022-11-20T06:12:14.790Z,21.58
2022-11-20T06:14:42.101Z,21.13
2022-11-20T06:17:09.382Z,22.13
2022-11-20T06:19:37.029Z,22.58
2022-11-20T06:22:04.245Z,23.75
2022-11-20T06:24:31.551Z,23.30
2022-11-20T06:26:59.003Z,21.77
2022-11-20T06:29:30.195Z,22.23
2022-11-20T06:32:01.199Z,23.15
2022-11-20T06:34:28.424Z,24.20
2022-11-20T06:36:55.741Z,23.90
2022-11-20T06:39:23.279Z,24.17
2022-11-20T06:41:54.437Z,22.05
2022-11-20T06:44:26.133Z,23.08
2022-11-20T06:46:53.456Z,25.85
2022-11-20T06:49:21.298Z,24.60
2022-11-20T06:51:50.026Z,25.20
2022-11-20T06:54:17.556Z,25.58
2022-11-20T06:56:48.396Z,27.23
2022-11-20T06:59:15.861Z,28.05
2022-11-20T07:01:43.171Z,26.50
2022-11-20T07:04:10.458Z,24.90
2022-11-20T07:06:39.775Z,26.20
2022-11-20T07:09:22.135Z,24.35
2022-11-20T07:11:49.855Z,24.27
2022-11-20T07:14:17.080Z,25.20
2022-11-20T07:16:44.387Z,22.85
2022-11-20T07:19:11.998Z,24.92
2022-11-20T07:21:39.290Z,24.55
2022-11-20T07:24:06.526Z,26.27
2022-11-20T07:26:33.867Z,25.63
2022-11-20T07:29:01.099Z,27.38
2022-11-20T07:31:34.303Z,26.77
2022-11-20T07:34:01.729Z,25.95
2022-11-20T07:36:30.827Z,25.33
2022-11-20T07:38:58.180Z,25.67
2022-11-20T07:41:26.607Z,26.80
2022-11-20T07:43:54.050Z,25.05
2022-11-20T07:46:21.296Z,25.67
2022-11-20T07:48:48.612Z,23.25
2022-11-20T07:51:15.875Z,26.77
2022-11-20T07:53:45.346Z,26.10
2022-11-20T07:56:12.612Z,28.50
2022-11-20T07:58:39.961Z,24.27
2022-11-20T08:01:08.152Z,24.25
2022-11-20T08:03:35.826Z,25.92
2022-11-20T08:06:03.294Z,26.08
2022-11-20T08:08:33.652Z,23.05
2022-11-20T08:11:22.923Z,23.60
2022-11-20T08:14:09.244Z,23.90
2022-11-20T08:16:36.977Z,24.50
2022-11-20T08:19:04.222Z,23.17
2022-11-20T08:21:37.794Z,24.23
2022-11-20T08:24:05.969Z,24.97
2022-11-20T08:26:33.254Z,23.75
2022-11-20T08:29:00.921Z,23.45
2022-11-20T08:31:28.845Z,22.23
2022-11-20T08:33:56.147Z,24.33
2022-11-20T08:36:24.123Z,25.90
2022-11-20T08:38:52.146Z,26.88
2022-11-20T08:41:26.484Z,24.15
2022-11-20T08:44:03.752Z,25.80
2022-11-20T08:46:36.428Z,25.05
2022-11-20T08:49:09.431Z,26.45
2022-11-20T08:51:37.338Z,28.25
2022-11-20T08:54:04.894Z,26.17
2022-11-20T08:56:32.283Z,27.30
2022-11-20T08:59:20.543Z,25.00
2022-11-20T09:01:50.041Z,26.70
2022-11-20T09:04:17.463Z,25.48
2022-11-20T09:06:44.921Z,25.38
2022-11-20T09:09:12.268Z,26.02
2022-11-20T09:11:39.858Z,26.10
2022-11-20T09:14:07.347Z,28.63
2022-11-20T09:16:34.648Z,25.92
2022-11-20T09:19:33.565Z,25.52
2022-11-20T09:21:49.444Z,25.75
2022-11-20T09:24:17.352Z,24.48
2022-11-20T09:26:44.668Z,27.83
2022-11-20T09:29:11.984Z,26.42
2022-11-20T09:31:39.354Z,25.88
2022-11-20T09:34:06.603Z,28.00
2022-11-20T09:36:36.338Z,27.80
2022-11-20T09:39:03.874Z,27.15
2022-11-20T09:41:50.749Z,27.58
2022-11-20T09:44:30.117Z,25.20
2022-11-20T09:47:04.627Z,25.85
2022-11-20T09:49:42.906Z,22.98
2022-11-20T09:52:13.025Z,24.08
2022-11-20T09:54:42.515Z,21.85
2022-11-20T09:57:17.851Z,23.90
2022-11-20T09:59:47.158Z,23.05
2022-11-20T10:02:19.736Z,24.88
2022-11-20T10:04:53.444Z,21.17
2022-11-20T10:07:33.591Z,22.23
2022-11-20T10:10:04.419Z,21.13
2022-11-20T10:12:47.038Z,22.08
2022-11-20T10:15:32.845Z,22.17
2022-11-20T10:18:13.899Z,22.23
2022-11-20T10:21:06.796Z,21.23
2022-11-20T10:23:52.621Z,20.45
2022-11-20T10:26:38.612Z,21.35
2022-11-20T10:29:15.077Z,23.38
2022-11-20T10:31:43.406Z,20.85
2022-11-20T10:34:22.943Z,21.25
2022-11-20T10:36:58.732Z,21.45
2022-11-20T10:39:34.136Z,19.92
2022-11-20T10:42:07.151Z,20.33
2022-11-20T10:44:57.708Z,20.08
2022-11-20T10:47:27.552Z,19.05
2022-11-20T10:49:55.724Z,19.20
2022-11-20T10:52:45.431Z,18.63
2022-11-20T10:55:29.214Z,19.13
2022-11-20T10:58:03.026Z,20.35
2022-11-20T11:00:32.856Z,18.92
2022-11-20T11:03:04.208Z,17.05
2022-11-20T11:05:31.834Z,17.95
2022-11-20T11:08:00.946Z,17.33
2022-11-20T11:10:47.276Z,16.25
2022-11-20T11:13:21.750Z,15.63
2022-11-20T11:15:49.416Z,13.93
2022-11-20T11:18:30.942Z,15.10
2022-11-20T11:20:58.880Z,17.05
2022-11-20T11:23:42.136Z,15.02
2022-11-20T11:26:21.324Z,14.27
2022-11-20T11:28:55.560Z,15.07
2022-11-20T11:31:28.702Z,13.38
2022-11-20T11:34:15.870Z,13.15
2022-11-20T11:36:43.482Z,13.80
2022-11-20T11:39:16.581Z,12.48
2022-11-20T11:41:43.950Z,11.23
2022-11-20T11:44:44.699Z,12.95
2022-11-20T11:47:20.030Z,9.15
2022-11-20T11:49:47.376Z,10.00
2022-11-20T11:52:18.815Z,9.77
2022-11-20T11:54:53.352Z,9.02
2022-11-20T11:57:31.423Z,8.77
2022-11-20T12:00:12.388Z,9.05
2022-11-20T12:02:39.677Z,8.52
2022-11-20T12:05:07.008Z,7.45
2022-11-20T12:07:47.112Z,8.35
2022-11-20T12:10:18.606Z,7.07
2022-11-20T12:12:48.148Z,5.60
2022-11-20T12:15:28.285Z,5.05
2022-11-20T12:17:55.741Z,4.68
2022-11-20T12:20:26.105Z,5.32
2022-11-20T12:22:53.909Z,4.45
2022-11-20T12:25:21.242Z,4.85
2022-11-20T12:27:59.579Z,4.28
2022-11-20T12:30:27.070Z,3.38
2022-11-20T12:33:13.128Z,3.85
2022-11-20T12:35:58.983Z,3.20
2022-11-20T12:41:37.882Z,3.17
2022-11-20T12:44:24.032Z,2.97
2022-11-20T12:47:23.682Z,2.58
2022-11-20T12:49:58.353Z,2.97
2022-11-20T12:52:37.734Z,2.55
2022-11-20T12:55:24.375Z,2.85
2022-11-20T12:57:57.557Z,2.95
2022-11-20T13:00:25.799Z,2.90
2022-11-20T13:02:52.970Z,2.85
2022-11-20T13:05:22.312Z,3.28
2022-11-20T13:07:52.048Z,3.33
2022-11-20T13:10:25.440Z,2.80
2022-11-20T13:13:05.524Z,3.13
2022-11-20T13:15:46.717Z,3.15
2022-11-20T13:18:14.903Z,2.70
2022-11-20T13:20:49.263Z,2.78
2022-11-20T13:23:27.025Z,3.00
2022-11-20T13:26:07.027Z,2.70
2022-11-20T13:28:34.528Z,2.63
2022-11-20T13:31:02.496Z,2.75
2022-11-20T13:33:33.903Z,2.90
2022-11-20T13:36:05.890Z,3.42
2022-11-20T13:38:49.560Z,3.10
2022-11-20T13:41:39.077Z,2.72
2022-11-20T13:44:17.235Z,2.90
2022-11-20T13:46:46.002Z,3.13
2022-11-20T13:49:33.754Z,2.80
2022-11-20T13:52:16.275Z,2.92
2022-11-20T13:54:52.600Z,3.42
2022-11-20T13:57:38.717Z,3.10
2022-11-20T14:00:11.955Z,3.28
2022-11-20T14:02:39.723Z,3.08
2022-11-20T14:05:07.316Z,3.25
2022-11-20T14:07:40.062Z,3.10
2022-11-20T14:10:07.857Z,3.53
2022-11-20T14:12:35.538Z,3.67
2022-11-20T14:15:03.059Z,3.38
2022-11-20T14:17:30.219Z,3.95
2022-11-20T14:20:00.407Z,3.90
2022-11-20T14:22:28.222Z,4.00
2022-11-20T14:25:07.919Z,3.60
2022-11-20T14:27:37.596Z,3.75
2022-11-20T14:30:05.656Z,4.30
2022-11-20T14:32:33.221Z,4.28
2022-11-20T14:35:03.989Z,4.00
2022-11-20T14:37:35.150Z,4.20
2022-11-20T14:40:02.647Z,4.50
2022-11-20T14:42:31.852Z,2.92
2022-11-20T14:45:00.944Z,3.15
2022-11-20T14:47:29.529Z,2.60
2022-11-20T14:49:57.681Z,2.10
2022-11-20T14:52:26.005Z,2.35
2022-11-20T14:55:00.366Z,2.67
2022-11-20T14:57:35.441Z,2.20
2022-11-20T15:00:07.008Z,2.15
2022-11-20T15:02:34.367Z,2.30
2022-11-20T15:05:04.483Z,2.35
2022-11-20T15:07:36.386Z,2.72
2022-11-20T15:10:08.851Z,2.67
2022-11-20T15:12:37.617Z,2.72
2022-11-20T15:15:06.239Z,3.08
2022-11-20T15:17:34.073Z,2.75
2022-11-20T15:20:02.720Z,2.33
2022-11-20T15:22:30.062Z,2.50
2022-11-20T15:24:57.358Z,2.75
2022-11-20T15:27:24.754Z,2.90
2022-11-20T15:29:51.980Z,2.28
2022-11-20T15:32:19.353Z,2.70
2022-11-20T15:34:46.859Z,3.55
2022-11-20T15:37:17.019Z,2.30
2022-11-20T15:39:44.330Z,2.15
2022-11-20T15:42:11.801Z,2.47
2022-11-20T15:44:39.242Z,2.70
2022-11-20T15:47:06.692Z,3.45
2022-11-20T15:49:34.145Z,3.63
2022-11-20T15:52:01.427Z,3.92
2022-11-20T15:54:28.707Z,2.60
2022-11-20T15:56:55.993Z,2.50
2022-11-20T15:59:23.351Z,2.90
2022-11-20T16:01:50.895Z,2.83
2022-11-20T16:04:24.623Z,2.38
2022-11-20T16:06:52.375Z,2.90
2022-11-20T16:09:19.626Z,3.38
2022-11-20T16:11:51.422Z,2.92
2022-11-20T16:14:37.698Z,3.65
2022-11-20T16:17:05.005Z,3.13
2022-11-20T16:19:32.273Z,2.58
2022-11-20T16:22:03.091Z,2.35
2022-11-20T16:24:31.159Z,2.40
2022-11-20T16:26:58.939Z,3.00
2022-11-20T16:29:26.429Z,2.60
2022-11-20T16:31:53.739Z,2.70
2022-11-20T16:34:21.084Z,2.75
2022-11-20T16:36:49.777Z,2.95
2022-11-20T16:39:23.099Z,3.30
2022-11-20T16:41:51.211Z,2.97
2022-11-20T16:44:18.841Z,2.80
2022-11-20T16:46:46.229Z,2.88
2022-11-20T16:49:14.964Z,2.97
2022-11-20T16:51:43.248Z,2.88
2022-11-20T16:54:13.059Z,2.47
2022-11-20T16:56:43.020Z,2.65
2022-11-20T16:59:10.833Z,2.13
2022-11-20T17:01:40.305Z,2.22
2022-11-20T17:04:07.883Z,1.92
2022-11-20T17:06:36.852Z,2.00
2022-11-20T17:09:05.736Z,2.63
2022-11-20T17:11:33.686Z,2.28
2022-11-20T17:14:01.100Z,2.83
2022-11-20T17:16:28.550Z,2.42
2022-11-20T17:19:02.288Z,4.13
2022-11-20T17:21:30.588Z,3.67
2022-11-20T17:24:32.041Z,2.83
2022-11-20T17:26:59.614Z,3.40
2022-11-20T17:29:27.066Z,3.35
2022-11-20T17:31:55.120Z,3.40
2022-11-20T17:34:22.677Z,2.90
2022-11-20T17:36:50.547Z,2.75
2022-11-20T17:39:18.276Z,2.20
2022-11-20T17:42:06.530Z,2.88
2022-11-20T17:44:34.393Z,3.35
2022-11-20T17:47:01.914Z,2.95
2022-11-20T17:49:29.437Z,2.40
2022-11-20T17:51:56.665Z,2.72
2022-11-20T17:54:24.438Z,2.88
2022-11-20T17:57:10.915Z,2.92
2022-11-20T17:59:39.111Z,3.15
2022-11-20T18:02:06.526Z,3.17
2022-11-20T18:04:33.971Z,4.30
2022-11-20T18:07:01.395Z,3.40
2022-11-20T18:09:31.152Z,3.90
2022-11-20T18:11:58.493Z,3.45
2022-11-20T18:14:32.455Z,3.90
2022-11-20T18:17:02.877Z,2.50
2022-11-20T18:19:32.884Z,6.00
2022-11-20T18:22:01.782Z,2.33
2022-11-20T18:24:29.299Z,2.55
2022-11-20T18:26:57.842Z,2.88
2022-11-20T18:29:26.022Z,2.70
2022-11-20T18:31:53.923Z,2.45
2022-11-20T18:34:21.480Z,4.38
2022-11-20T18:36:49.704Z,2.38
2022-11-20T18:39:18.089Z,3.05
2022-11-20T18:42:05.742Z,2.80
2022-11-20T18:44:51.495Z,2.22
2022-11-20T18:47:20.408Z,2.83
2022-11-20T18:49:51.478Z,2.63
2022-11-20T18:52:23.580Z,1.98
2022-11-20T18:54:51.375Z,3.70
2022-11-20T18:57:22.546Z,2.80
2022-11-20T18:59:50.007Z,2.63
2022-11-20T19:02:18.934Z,2.58
2022-11-20T19:04:46.441Z,2.40
2022-11-20T19:07:14.129Z,2.33
2022-11-20T19:09:42.435Z,3.10
2022-11-20T19:12:10.358Z,2.97
2022-11-20T19:14:37.714Z,2.92
2022-11-20T19:17:06.819Z,2.80
2022-11-20T19:19:36.936Z,2.70
2022-11-20T19:22:04.278Z,3.20
2022-11-20T19:24:31.534Z,3.60
2022-11-20T19:26:58.925Z,2.60
2022-11-20T19:29:27.182Z,2.25
2022-11-20T19:31:54.734Z,2.63
2022-11-20T19:34:22.267Z,2.60
2022-11-20T19:36:49.872Z,2.67
2022-11-20T19:39:17.745Z,3.08
2022-11-20T19:41:45.098Z,2.67
2022-11-20T19:44:14.123Z,2.20
2022-11-20T19:46:41.922Z,3.13
2022-11-20T19:49:10.213Z,2.45
2022-11-20T19:51:42.042Z,3.17
2022-11-20T19:54:09.446Z,2.88
2022-11-20T19:56:36.704Z,2.38
2022-11-20T19:59:04.190Z,1.60
2022-11-20T20:01:31.949Z,2.72
2022-11-20T20:04:05.582Z,2.90
2022-11-20T20:06:35.581Z,2.22
2022-11-20T20:09:05.241Z,2.28
2022-11-20T20:11:33.269Z,2.15
2022-11-20T20:14:04.525Z,1.90
2022-11-20T20:16:31.890Z,2.38
2022-11-20T20:19:03.787Z,2.25
2022-11-20T20:21:31.728Z,2.67
2022-11-20T20:23:59.279Z,2.33
2022-11-20T20:26:28.107Z,2.83
2022-11-20T20:28:56.281Z,2.90
2022-11-20T20:31:24.982Z,2.60
2022-11-20T20:33:52.468Z,2.45
2022-11-20T20:36:21.209Z,2.13
2022-11-20T20:38:48.592Z,2.60
2022-11-20T20:41:19.548Z,3.42
2022-11-20T20:44:05.862Z,2.30
2022-11-20T20:46:33.239Z,2.22
2022-11-20T20:49:00.799Z,2.65
2022-11-20T20:51:28.283Z,2.80
2022-11-20T20:53:55.711Z,3.08
2022-11-20T20:56:23.125Z,4.80
2022-11-20T20:58:50.702Z,3.05
2022-11-20T21:01:19.042Z,2.88
2022-11-20T21:03:46.369Z,2.50
2022-11-20T21:06:13.896Z,3.15
2022-11-20T21:08:44.275Z,3.35
2022-11-20T21:11:16.144Z,2.50
2022-11-20T21:13:44.052Z,3.92
2022-11-20T21:16:11.962Z,2.88
2022-11-20T21:18:39.424Z,2.75
2022-11-20T21:21:26.542Z,3.88
2022-11-20T21:23:54.602Z,4.25
2022-11-20T21:26:29.641Z,3.78
2022-11-20T21:28:58.127Z,2.83
2022-11-20T21:31:26.798Z,2.38
2022-11-20T21:33:55.369Z,2.53
2022-11-20T21:36:23.852Z,2.47
2022-11-20T21:38:52.100Z,2.50
2022-11-20T21:41:19.532Z,2.30
2022-11-20T21:43:51.565Z,2.78
2022-11-20T21:46:27.096Z,2.25
2022-11-20T21:48:54.417Z,2.67
2022-11-20T21:51:22.905Z,2.28
2022-11-20T21:53:50.660Z,2.55
2022-11-20T21:56:20.597Z,3.25
2022-11-20T21:58:49.003Z,2.58
2022-11-20T22:01:17.587Z,2.85
2022-11-20T22:03:49.703Z,2.15
2022-11-20T22:06:17.654Z,2.38
2022-11-20T22:08:45.010Z,2.13
2022-11-20T22:11:20.028Z,2.70
2022-11-20T22:14:06.265Z,1.80
2022-11-20T22:16:34.522Z,1.70
2022-11-20T22:19:01.768Z,2.28
2022-11-20T22:21:30.592Z,2.00
2022-11-20T22:23:58.278Z,2.67
2022-11-20T22:26:29.949Z,2.03
2022-11-20T22:28:58.275Z,2.30
2022-11-20T22:31:27.137Z,1.90
2022-11-20T22:33:54.690Z,1.90
2022-11-20T22:36:23.239Z,1.88
2022-11-20T22:38:50.607Z,2.30
2022-11-20T22:41:19.144Z,2.03
2022-11-20T22:43:46.849Z,2.53
2022-11-20T22:46:18.069Z,2.40
2022-11-20T22:48:52.514Z,2.28
2022-11-20T22:51:20.985Z,2.50
2022-11-20T22:53:48.374Z,2.40
2022-11-20T22:56:16.094Z,2.92
2022-11-20T22:58:44.393Z,2.50
2022-11-20T23:01:15.908Z,1.95
2022-11-20T23:03:44.254Z,2.15
2022-11-20T23:06:11.996Z,2.78
2022-11-20T23:08:39.941Z,2.30
2022-11-20T23:11:08.485Z,1.90
2022-11-20T23:13:35.868Z,2.65
2022-11-20T23:16:07.009Z,2.15
2022-11-20T23:18:34.439Z,2.00
2022-11-20T23:21:08.136Z,2.60
2022-11-20T23:23:35.730Z,1.98
2022-11-20T23:26:03.760Z,3.30
2022-11-20T23:28:31.394Z,2.10
2022-11-20T23:30:58.789Z,1.88
2022-11-20T23:33:26.905Z,2.05
2022-11-20T23:35:54.212Z,2.30
2022-11-20T23:38:21.670Z,1.75
2022-11-20T23:40:52.788Z,1.65
2022-11-20T23:43:21.291Z,2.28
2022-11-20T23:45:52.853Z,1.98
2022-11-20T23:48:20.835Z,1.65
2022-11-20T23:50:48.079Z,1.52
2022-11-20T23:53:15.935Z,1.80
2022-11-20T23:55:50.414Z,1.58
2022-11-20T23:58:18.239Z,2.05
